Time;durP1;ratioP1;P1;durP2;ratioP2;P2;SDS_P1;SDS_P2;PMS_P1;PMS_P2;Temp;Humidity;BMP_temperature;BMP_pressure;BME280_temperature;BME280_humidity;BME280_pressure;Samples;Min_cycle;Max_cycle;Signal;HPM_P1;HPM_P2
2021/12/14 00:02:24;;;;;;;;;19.50;19.50;;;;;5.53;81.34;101727.56;5053213;28;11665;-78
2021/12/14 00:05:22;;;;;;;;;17.00;17.00;;;;;5.29;81.80;101724.47;5005173;28;11777;-78
2021/12/14 00:08:18;;;;;;;;;17.75;17.75;;;;;5.33;82.01;101714.63;5015565;28;11614;-78
2021/12/14 00:17:25;;;;;;;;;70.33;58.33;;;;;5.06;83.05;101734.03;5013896;28;11635;-77
2021/12/14 00:20:36;;;;;;;;;76.50;58.00;;;;;5.12;82.85;101743.88;5015125;28;8856;-77
2021/12/14 00:27:05;;;;;;;;;46.00;39.50;;;;;5.39;81.93;101745.63;4993892;28;11637;-78
2021/12/14 00:30:03;;;;;;;;;61.50;50.25;;;;;5.47;81.82;101751.41;4995161;28;11616;-78
2021/12/14 00:32:59;;;;;;;;;30.50;28.25;;;;;5.52;80.95;101739.59;4994566;28;11615;-77
2021/12/14 00:35:28;;;;;;;;;34.75;33.75;;;;;5.57;81.11;101747.84;5010551;28;12429;-78
2021/12/14 00:38:23;;;;;;;;;17.00;17.00;;;;;5.61;80.43;101764.63;5013653;28;11623;-78
2021/12/14 00:41:22;;;;;;;;;20.25;20.25;;;;;5.62;80.30;101761.59;5012245;28;11582;-77
2021/12/14 00:44:18;;;;;;;;;19.50;16.75;;;;;5.55;80.78;101756.38;5013289;28;11591;-77
2021/12/14 00:47:16;;;;;;;;;17.00;17.00;;;;;5.47;80.84;101745.09;5013203;28;11590;-77
2021/12/14 00:50:12;;;;;;;;;16.25;16.25;;;;;5.48;80.87;101755.81;5013337;28;11685;-77
2021/12/14 00:52:42;;;;;;;;;13.75;13.75;;;;;5.57;80.63;101747.84;5013475;28;11570;-77
2021/12/14 00:55:13;;;;;;;;;15.25;15.25;;;;;5.35;81.33;101745.34;5013651;28;11574;-76
2021/12/14 00:57:56;;;;;;;;;21.00;21.00;;;;;5.52;80.88;101743.19;5013240;28;11605;-78
2021/12/14 01:01:02;;;;;;;;;16.00;16.00;;;;;5.46;80.89;101738.78;5004867;28;11581;-77
2021/12/14 01:04:04;;;;;;;;;17.00;17.00;;;;;5.59;80.76;101753.91;5020191;28;12344;-77
2021/12/14 01:07:02;;;;;;;;;17.75;17.75;;;;;5.64;80.46;101759.41;5013137;28;11701;-78
2021/12/14 01:10:01;;;;;;;;;16.00;15.75;;;;;5.57;80.61;101759.66;5013253;28;11582;-77
2021/12/14 01:12:44;;;;;;;;;18.75;18.75;;;;;5.59;80.81;101765.69;5013581;28;11593;-77
2021/12/14 01:15:24;;;;;;;;;20.25;20.25;;;;;5.68;80.68;101771.50;5016041;28;11597;-77
2021/12/14 01:18:17;;;;;;;;;14.50;13.00;;;;;5.65;79.88;101766.53;5013290;28;11625;-78
2021/12/14 01:20:50;;;;;;;;;16.75;16.75;;;;;5.55;79.96;101759.13;5011925;28;11563;-77
2021/12/14 01:23:46;;;;;;;;;17.75;17.25;;;;;5.44;80.91;101756.59;5016642;28;11686;-78
2021/12/14 01:26:43;;;;;;;;;36.25;34.00;;;;;5.43;80.85;101760.44;5013031;28;12424;-78
2021/12/14 01:29:40;;;;;;;;;22.75;21.50;;;;;5.29;81.29;101760.13;5011263;28;11692;-77
2021/12/14 01:32:09;;;;;;;;;28.50;28.00;;;;;5.30;81.56;101750.81;5013652;28;11607;-78
2021/12/14 01:35:12;;;;;;;;;27.00;25.50;;;;;5.48;81.14;101733.84;5017111;28;11610;-77
2021/12/14 01:38:21;;;;;;;;;17.50;17.50;;;;;5.25;82.04;101721.44;5016634;28;11695;-77
2021/12/14 01:40:54;;;;;;;;;16.00;16.00;;;;;5.18;82.33;101726.38;5015873;28;11669;-76
2021/12/14 01:43:54;;;;;;;;;16.00;13.00;;;;;5.19;82.50;101727.19;5025836;28;11570;-77
2021/12/14 01:46:43;;;;;;;;;17.25;13.50;;;;;5.09;82.39;101732.66;5036551;28;11776;-77
2021/12/14 01:49:40;;;;;;;;;19.25;18.50;;;;;5.20;82.07;101732.41;5033352;28;11585;-78
2021/12/14 01:52:36;;;;;;;;;20.50;19.75;;;;;5.36;81.85;101736.00;5035340;28;11690;-77
2021/12/14 01:55:35;;;;;;;;;17.75;16.50;;;;;5.18;82.21;101729.09;5036575;28;11550;-78
2021/12/14 01:58:53;;;;;;;;;16.50;16.50;;;;;5.14;82.47;101736.25;5036393;28;11575;-77
2021/12/14 02:01:38;;;;;;;;;21.75;21.75;;;;;5.17;82.48;101743.09;5027203;28;11560;-77
2021/12/14 02:04:38;;;;;;;;;17.75;17.75;;;;;5.43;81.76;101741.25;5049245;28;11641;-78
2021/12/14 02:07:35;;;;;;;;;19.00;17.50;;;;;5.21;82.23;101725.84;5055248;28;11585;-77
2021/12/14 02:10:35;;;;;;;;;17.75;17.75;;;;;5.22;82.08;101721.19;5041751;28;11609;-78
2021/12/14 02:13:06;;;;;;;;;18.00;18.00;;;;;5.35;81.77;101739.03;5055514;28;11682;-77
2021/12/14 02:16:04;;;;;;;;;19.50;19.50;;;;;5.54;81.24;101732.78;5043252;28;11636;-77
2021/12/14 02:19:05;;;;;;;;;29.75;28.25;;;;;5.40;81.39;101737.13;5055192;28;11861;-77
2021/12/14 02:22:05;;;;;;;;;21.00;20.25;;;;;5.28;82.25;101740.09;5054550;28;11635;-77
2021/12/14 02:25:05;;;;;;;;;23.00;23.00;;;;;5.14;82.89;101738.16;5054997;28;11617;-77
2021/12/14 02:27:37;;;;;;;;;35.75;30.75;;;;;5.33;82.53;101730.25;5038644;28;11604;-78
2021/12/14 02:30:33;;;;;;;;;33.50;29.50;;;;;5.42;81.92;101720.38;5054804;28;11619;-77
2021/12/14 02:33:34;;;;;;;;;26.00;25.00;;;;;5.47;82.05;101720.41;5054579;28;11606;-77
2021/12/14 02:36:34;;;;;;;;;21.25;19.00;;;;;5.59;81.31;101716.28;5054737;28;11540;-78
2021/12/14 02:42:32;;;;;;;;;17.75;16.00;;;;;4.89;84.35;101690.34;5054441;28;11562;-78
2021/12/14 02:45:00;;;;;;;;;26.25;23.75;;;;;5.06;84.35;101701.13;5054493;28;11660;-78
2021/12/14 02:47:28;;;;;;;;;23.00;17.00;;;;;5.08;84.61;101685.22;5055653;28;11601;-77
2021/12/14 02:50:24;;;;;;;;;29.75;26.00;;;;;5.03;84.54;101686.00;5054477;28;12521;-78
2021/12/14 02:53:20;;;;;;;;;28.50;28.50;;;;;5.15;84.74;101706.91;5041102;28;12438;-78
2021/12/14 02:56:11;;;;;;;;;24.75;20.75;;;;;5.16;84.79;101690.16;5055557;28;11580;-77
2021/12/14 02:58:40;;;;;;;;;24.25;24.00;;;;;5.13;84.61;101703.56;5038584;28;11537;-78
2021/12/14 03:01:09;;;;;;;;;23.75;23.75;;;;;5.27;84.34;101700.06;5070467;28;11617;-77
2021/12/14 03:03:58;;;;;;;;;59.25;48.75;;;;;5.08;84.60;101696.19;5054838;28;11547;-77
2021/12/14 03:06:57;;;;;;;;;56.25;46.75;;;;;4.97;85.54;101700.78;5034540;28;11590;-77
2021/12/14 03:13:13;;;;;;;;;27.00;24.75;;;;;5.03;85.53;101726.31;5039926;28;11615;-77
2021/12/14 03:16:16;;;;;;;;;39.25;35.00;;;;;5.17;85.38;101721.97;5065657;28;11527;-77
2021/12/14 03:19:00;;;;;;;;;42.00;39.50;;;;;5.17;85.53;101729.38;5055009;28;12478;-77
2021/12/14 03:21:56;;;;;;;;;29.75;26.50;;;;;5.21;85.50;101742.31;5055542;28;11562;-77
2021/12/14 03:24:52;;;;;;;;;32.50;29.50;;;;;5.12;86.10;101746.63;5053615;28;11515;-77
2021/12/14 03:27:50;;;;;;;;;22.00;20.50;;;;;5.03;86.00;101754.56;5065548;28;11572;-77
2021/12/14 03:30:30;;;;;;;;;26.00;24.25;;;;;5.24;85.51;101763.69;5036892;28;11641;-78
2021/12/14 03:33:33;;;;;;;;;21.00;21.00;;;;;5.35;85.10;101755.50;5053310;28;11571;-77
2021/12/14 03:36:34;;;;;;;;;18.25;18.25;;;;;5.32;84.98;101767.84;5040611;28;11596;-77
2021/12/14 03:39:34;;;;;;;;;24.50;23.25;;;;;5.41;84.91;101744.25;5053655;28;11539;-77
2021/12/14 03:42:37;;;;;;;;;25.75;24.25;;;;;5.47;84.79;101747.84;5041834;28;11505;-78
2021/12/14 03:45:33;;;;;;;;;22.25;22.25;;;;;5.39;84.58;101749.19;5040358;28;11520;-77
2021/12/14 03:48:03;;;;;;;;;15.75;15.75;;;;;5.17;85.08;101754.88;5054523;28;11471;-77
2021/12/14 03:50:59;;;;;;;;;17.75;17.75;;;;;5.22;85.62;101756.84;5039845;28;11478;-77
2021/12/14 03:53:56;;;;;;;;;11.25;11.25;;;;;5.37;85.19;101753.28;5039567;28;11534;-77
2021/12/14 03:56:53;;;;;;;;;32.50;28.25;;;;;5.15;85.72;101751.59;5041679;28;11518;-77
2021/12/14 03:59:49;;;;;;;;;23.25;23.25;;;;;4.99;86.75;101752.63;5054724;28;11573;-77
2021/12/14 04:02:46;;;;;;;;;24.75;24.75;;;;;5.15;86.36;101773.53;5020075;28;11674;-75
2021/12/14 04:05:46;;;;;;;;;23.00;23.00;;;;;5.12;86.21;101776.78;5039733;28;11600;-77
2021/12/14 04:08:43;;;;;;;;;23.00;20.75;;;;;5.16;86.43;101775.19;5039780;28;11620;-78
2021/12/14 04:11:14;;;;;;;;;20.25;20.25;;;;;5.27;86.04;101781.53;5054060;28;12343;-79
2021/12/14 04:14:10;;;;;;;;;25.25;22.25;;;;;5.32;85.92;101776.06;5052517;28;11054;-78
2021/12/14 04:16:52;;;;;;;;;32.75;32.25;;;;;5.31;85.89;101790.88;5053219;28;11551;-79
2021/12/14 04:19:25;;;;;;;;;27.25;27.25;;;;;5.45;85.50;101781.06;5053627;28;11605;-79
2021/12/14 04:22:24;;;;;;;;;28.00;26.50;;;;;5.19;86.73;101773.81;5039460;28;11597;-79
2021/12/14 04:25:26;;;;;;;;;29.00;29.00;;;;;5.21;86.71;101783.44;5052700;28;11592;-78
2021/12/14 04:28:27;;;;;;;;;26.25;24.50;;;;;5.30;86.70;101781.00;5052691;28;11596;-78
2021/12/14 04:31:24;;;;;;;;;32.75;31.50;;;;;5.36;87.12;101790.06;5039276;28;11592;-79
2021/12/14 04:34:20;;;;;;;;;34.50;33.50;;;;;5.34;87.13;101803.22;5052474;28;11532;-79
2021/12/14 04:37:17;;;;;;;;;34.75;33.75;;;;;5.37;86.93;101805.41;5064333;28;11563;-79
2021/12/14 04:40:36;;;;;;;;;31.50;31.50;;;;;5.24;87.19;101801.28;5052563;28;12418;-78
2021/12/14 04:53:02;;;;;;;;;26.25;25.25;;;;;5.18;87.73;101800.41;5053761;28;11527;-77
2021/12/14 04:55:30;;;;;;;;;25.50;24.00;;;;;5.19;87.99;101801.22;5035978;28;11527;-78
2021/12/14 04:58:36;;;;;;;;;26.00;24.75;;;;;5.28;87.54;101800.44;5039739;28;11532;-77
2021/12/14 05:01:18;;;;;;;;;32.50;29.25;;;;;5.23;87.65;101802.38;5052067;28;11620;-77
2021/12/14 05:04:19;;;;;;;;;31.00;29.75;;;;;5.10;88.14;101798.19;5051787;28;11644;-76
2021/12/14 05:09:20;;;;;;;;;29.25;29.25;;;;;5.19;88.50;101796.56;5051563;28;12398;-77
2021/12/14 05:10:07;;;;;;;;;38.00;38.00;;;;;5.13;88.44;101796.81;5042746;28;11559;-76
2021/12/14 05:12:37;;;;;;;;;36.75;34.50;;;;;5.23;88.40;101807.84;5068106;28;11619;-77
2021/12/14 05:15:41;;;;;;;;;21.75;21.75;;;;;5.32;87.58;101805.41;5045410;28;11471;-77
2021/12/14 05:18:14;;;;;;;;;26.00;26.00;;;;;5.29;87.93;101809.50;5032908;28;11711;-77
2021/12/14 05:20:45;;;;;;;;;42.50;37.00;;;;;5.30;88.06;101811.19;5033097;28;11640;-77
2021/12/14 05:23:31;;;;;;;;;33.50;32.25;;;;;5.24;88.21;101795.78;5034272;28;11569;-77
2021/12/14 05:26:15;;;;;;;;;32.50;32.50;;;;;5.08;88.73;101799.56;5052097;28;11667;-77
2021/12/14 05:28:57;;;;;;;;;37.25;37.25;;;;;5.00;89.03;101809.13;5052447;28;11667;-76
2021/12/14 05:31:25;;;;;;;;;35.00;35.00;;;;;5.12;88.95;101808.88;5052600;28;11541;-76
2021/12/14 05:34:23;;;;;;;;;39.00;37.25;;;;;5.15;88.80;101806.44;5050393;28;11612;-77
2021/12/14 05:37:13;;;;;;;;;51.25;44.25;;;;;5.05;88.67;101806.38;5028626;28;11662;-77
2021/12/14 05:40:18;;;;;;;;;52.00;44.75;;;;;5.02;89.08;101799.53;5033262;28;11629;-77
2021/12/14 05:43:18;;;;;;;;;60.00;47.75;;;;;5.21;88.61;101791.66;5051449;28;11598;-77
2021/12/14 05:46:21;;;;;;;;;98.00;84.33;;;;;5.19;88.63;101787.53;5025458;28;11677;-78
2021/12/14 05:49:23;;;;;;;;;49.50;42.50;;;;;5.03;88.87;101800.34;5051505;28;8828;-76
2021/12/14 05:52:23;;;;;;;;;43.00;40.25;;;;;5.17;88.66;101804.25;5051599;28;11524;-76
2021/12/14 05:55:26;;;;;;;;;33.75;31.25;;;;;5.25;88.08;101800.16;5053176;28;11533;-76
2021/12/14 05:57:56;;;;;;;;;56.00;48.25;;;;;5.23;88.25;101805.94;5052575;28;11603;-76
2021/12/14 06:00:33;;;;;;;;;66.75;53.50;;;;;5.14;88.50;101809.47;5052679;28;11572;-75
2021/12/14 06:03:02;;;;;;;;;71.25;55.75;;;;;5.23;88.50;101803.19;5035192;28;11541;-75
2021/12/14 06:06:02;;;;;;;;;72.25;55.00;;;;;5.22;88.21;101801.53;5039675;28;11771;-72
2021/12/14 06:09:06;;;;;;;;;71.67;57.33;;;;;5.21;88.54;101801.78;5053134;28;11630;-73
2021/12/14 06:12:24;;;;;;;;;92.33;68.33;;;;;5.23;88.76;101805.94;5051147;28;12370;-72
2021/12/14 06:15:27;;;;;;;;;93.67;71.33;;;;;5.13;88.67;101799.56;5047225;28;8848;-72
2021/12/14 06:17:55;;;;;;;;;88.67;68.67;;;;;5.17;88.77;101804.25;5035819;28;8848;-72
2021/12/14 06:20:37;;;;;;;;;83.67;65.33;;;;;5.30;88.57;101813.91;5055425;28;8872;-71
2021/12/14 06:23:32;;;;;;;;;89.00;67.00;;;;;5.35;88.13;101799.38;5025796;28;8837;-74
2021/12/14 06:26:00;;;;;;;;;91.67;70.67;;;;;5.28;88.25;101813.34;5056903;28;8843;-72
2021/12/14 06:29:08;;;;;;;;;86.67;64.33;;;;;5.23;88.32;101811.41;5056342;28;9592;-70
2021/12/14 06:32:16;;;;;;;;;91.33;73.67;;;;;5.43;87.74;101824.38;5056905;28;8856;-71
2021/12/14 06:35:27;;;;;;;;;84.00;65.33;;;;;5.39;88.04;101825.19;5060500;28;9613;-71
2021/12/14 06:41:12;;;;;;;;;72.67;59.33;;;;;5.44;87.37;101822.44;5074460;28;8984;-70
2021/12/14 06:44:08;;;;;;;;;84.33;64.67;;;;;5.41;87.74;101832.06;5057740;28;8853;-71
2021/12/14 06:47:04;;;;;;;;;78.00;61.00;;;;;5.47;87.81;101835.66;5054310;28;8886;-70
2021/12/14 06:49:32;;;;;;;;;70.50;54.25;;;;;5.45;87.78;101832.38;5063690;28;12259;-71
2021/12/14 06:51:59;;;;;;;;;59.75;50.25;;;;;5.53;87.27;101837.31;5069064;28;11547;-71
2021/12/14 06:54:56;;;;;;;;;71.00;58.50;;;;;5.67;86.54;101843.09;5069324;28;11507;-73
2021/12/14 06:57:38;;;;;;;;;95.67;70.33;;;;;5.59;86.59;101842.53;5074947;28;11565;-73
2021/12/14 07:00:35;;;;;;;;;91.33;69.00;;;;;5.65;86.91;101842.56;5046564;28;8870;-73
2021/12/14 07:03:39;;;;;;;;;88.33;67.33;;;;;5.43;87.17;101818.06;5053680;28;11738;-73
2021/12/14 07:06:40;;;;;;;;;81.67;65.00;;;;;5.39;87.56;101823.28;5053082;28;8870;-73
2021/12/14 07:09:42;;;;;;;;;102.33;77.67;;;;;5.26;87.65;101818.28;5052623;28;8862;-72
2021/12/14 07:12:40;;;;;;;;;86.00;64.33;;;;;5.56;87.03;101837.59;5072080;28;8857;-73
2021/12/14 07:15:36;;;;;;;;;75.00;58.67;;;;;5.61;86.65;101836.81;5060665;28;11665;-74
2021/12/14 07:18:32;;;;;;;;;72.75;58.00;;;;;5.46;86.59;101839.50;5073840;28;11679;-75
2021/12/14 07:21:41;;;;;;;;;82.67;66.00;;;;;5.40;86.75;101852.34;5068043;28;11614;-74
2021/12/14 07:24:21;;;;;;;;;64.75;51.25;;;;;5.58;86.67;101849.13;5074287;28;9664;-77
2021/12/14 07:27:25;;;;;;;;;80.33;63.33;;;;;5.50;87.37;101846.91;5035232;28;11685;-74
2021/12/14 07:30:55;;;;;;;;;73.75;60.25;;;;;5.51;87.17;101845.81;5019762;28;11652;-74
2021/12/14 07:33:55;;;;;;;;;76.00;57.50;;;;;5.62;87.20;101843.13;5053511;28;11563;-74
2021/12/14 07:36:51;;;;;;;;;68.00;57.00;;;;;5.44;87.32;101852.63;5054263;28;11663;-75
2021/12/14 07:39:20;;;;;;;;;63.25;53.75;;;;;5.51;87.36;101853.22;5036774;28;12407;-76
2021/12/14 07:41:54;;;;;;;;;65.00;53.75;;;;;5.44;87.44;101849.88;5058618;28;11502;-75
2021/12/14 07:44:32;;;;;;;;;58.00;48.00;;;;;5.55;87.26;101848.84;5061877;28;11519;-74
2021/12/14 07:47:06;;;;;;;;;65.25;53.25;;;;;5.56;87.30;101859.56;5034521;28;11557;-75
2021/12/14 07:50:03;;;;;;;;;54.75;47.00;;;;;5.44;87.24;101866.34;5053952;28;11665;-74
2021/12/14 07:52:45;;;;;;;;;54.00;45.00;;;;;5.27;87.54;101856.41;5053138;28;11614;-75
2021/12/14 07:55:44;;;;;;;;;50.75;44.75;;;;;5.28;87.81;101844.34;5039308;28;11599;-75
2021/12/14 07:58:46;;;;;;;;;48.50;44.75;;;;;5.45;87.16;101838.66;5053080;28;11712;-74
2021/12/14 08:01:41;;;;;;;;;62.25;51.00;;;;;5.32;87.74;101841.91;5053073;28;11617;-75
2021/12/14 08:04:41;;;;;;;;;55.75;47.25;;;;;5.48;87.58;101848.28;5052956;28;11639;-75
2021/12/14 08:07:09;;;;;;;;;70.00;53.75;;;;;5.63;86.67;101850.25;5054009;28;11602;-74
2021/12/14 08:10:16;;;;;;;;;62.00;49.25;;;;;5.61;86.47;101846.97;5038919;28;11597;-74
2021/12/14 08:12:57;;;;;;;;;75.33;61.33;;;;;5.59;86.35;101844.47;5036051;28;11521;-74
2021/12/14 08:15:54;;;;;;;;;59.25;47.00;;;;;5.64;86.32;101827.19;5021084;28;11569;-74
2021/12/14 08:18:32;;;;;;;;;47.75;43.50;;;;;5.47;86.69;101813.69;5054212;28;11547;-74
2021/12/14 08:21:25;;;;;;;;;36.50;36.50;;;;;5.35;87.03;101805.69;5068780;28;11542;-75
2021/12/14 08:24:04;;;;;;;;;37.75;36.00;;;;;5.57;86.57;101808.22;5067408;28;11556;-75
2021/12/14 08:26:43;;;;;;;;;42.75;41.25;;;;;5.62;86.03;101805.50;5069035;28;11555;-75
2021/12/14 08:29:21;;;;;;;;;41.25;39.25;;;;;5.64;86.06;101818.97;5053819;28;12216;-75
2021/12/14 08:31:53;;;;;;;;;29.75;25.75;;;;;5.81;85.86;101823.13;5053866;28;11553;-75
2021/12/14 08:34:26;;;;;;;;;37.25;36.25;;;;;5.84;85.39;101832.75;5053550;28;11534;-75
2021/12/14 08:37:07;;;;;;;;;36.25;34.00;;;;;5.91;84.73;101836.09;5069114;28;11643;-76
2021/12/14 08:40:02;;;;;;;;;37.50;33.75;;;;;5.79;85.08;101844.53;5053792;28;11610;-75
2021/12/14 08:42:50;;;;;;;;;33.50;33.50;;;;;5.95;84.46;101848.16;5052944;28;11572;-74
2021/12/14 08:45:27;;;;;;;;;33.00;30.50;;;;;5.86;84.50;101842.34;5053878;28;11546;-73
2021/12/14 08:48:13;;;;;;;;;32.50;32.50;;;;;5.93;84.42;101833.88;5053693;28;11568;-75
2021/12/14 08:50:54;;;;;;;;;49.00;44.25;;;;;5.90;84.90;101828.06;5053548;28;11553;-76
2021/12/14 08:53:29;;;;;;;;;57.75;48.50;;;;;6.03;84.52;101811.09;5068909;28;11537;-76
2021/12/14 08:55:59;;;;;;;;;37.25;31.50;;;;;5.92;84.66;101806.72;5053339;28;12305;-75
2021/12/14 08:58:28;;;;;;;;;44.50;41.00;;;;;6.00;84.58;101800.69;5053458;28;11561;-75
2021/12/14 09:01:01;;;;;;;;;32.25;30.75;;;;;5.89;84.64;101794.28;5053351;28;11530;-72
2021/12/14 09:03:36;;;;;;;;;28.25;27.75;;;;;5.57;85.77;101780.78;5068415;28;12338;-74
2021/12/14 09:06:08;;;;;;;;;34.50;29.75;;;;;5.80;85.01;101785.78;5053258;28;11602;-75
2021/12/14 09:08:38;;;;;;;;;27.50;25.50;;;;;5.77;84.59;101794.56;5053056;28;11622;-75
2021/12/14 09:11:08;;;;;;;;;35.00;31.00;;;;;5.84;84.58;101792.38;5068260;28;12301;-75
2021/12/14 09:13:37;;;;;;;;;41.50;40.00;;;;;5.72;84.68;101786.31;5053245;28;11568;-75
2021/12/14 09:16:21;;;;;;;;;31.75;31.75;;;;;5.80;84.89;101784.97;5035986;28;11553;-75
2021/12/14 09:18:58;;;;;;;;;32.25;31.75;;;;;5.79;84.69;101786.06;5035905;28;12364;-75
2021/12/14 09:21:31;;;;;;;;;26.50;26.50;;;;;5.75;84.78;101791.28;5053378;28;11552;-74
2021/12/14 09:24:06;;;;;;;;;34.75;32.75;;;;;5.70;84.46;101771.22;5053283;28;12385;-75
2021/12/14 09:26:38;;;;;;;;;27.00;27.00;;;;;5.78;84.23;101781.66;5053016;28;11575;-74
2021/12/14 09:29:12;;;;;;;;;32.50;32.50;;;;;5.77;84.29;101772.59;5052864;28;11539;-74
2021/12/14 09:31:43;;;;;;;;;19.00;19.00;;;;;5.78;84.40;101766.00;5052801;28;11499;-75
2021/12/14 09:34:13;;;;;;;;;28.25;28.25;;;;;5.93;83.67;101770.72;5053041;28;12352;-75
2021/12/14 09:36:42;;;;;;;;;20.75;20.75;;;;;5.85;83.51;101774.00;5053204;28;11534;-74
2021/12/14 09:39:16;;;;;;;;;23.50;22.00;;;;;5.55;83.97;101767.34;5052823;28;11534;-75
2021/12/14 09:41:46;;;;;;;;;25.25;25.00;;;;;5.64;84.38;101773.13;5052730;28;12248;-75
2021/12/14 09:44:18;;;;;;;;;27.75;25.25;;;;;5.84;84.31;101766.84;5052786;28;11504;-75
2021/12/14 09:46:46;;;;;;;;;27.75;26.00;;;;;5.75;84.39;101768.47;5053342;28;11579;-75
2021/12/14 09:49:17;;;;;;;;;31.25;29.00;;;;;5.77;84.49;101758.88;5035430;28;11531;-75
2021/12/14 09:51:54;;;;;;;;;28.75;28.75;;;;;5.89;83.96;101772.34;5052750;28;11634;-75
2021/12/14 09:54:25;;;;;;;;;27.25;27.25;;;;;5.75;84.25;101777.56;5055275;28;11532;-76
2021/12/14 09:57:03;;;;;;;;;33.25;31.00;;;;;5.75;84.51;101782.19;5057173;28;11532;-75
2021/12/14 09:59:34;;;;;;;;;31.25;31.00;;;;;5.70;84.77;101788.50;5039587;28;11590;-76
2021/12/14 10:02:11;;;;;;;;;33.25;31.25;;;;;5.65;84.38;101788.50;5038502;28;11574;-74
2021/12/14 10:04:45;;;;;;;;;28.00;28.00;;;;;5.77;84.31;101789.09;5055853;28;11649;-75
2021/12/14 10:07:41;;;;;;;;;29.50;29.50;;;;;5.74;84.60;101778.63;5034768;28;11542;-75
2021/12/14 10:10:36;;;;;;;;;29.50;28.25;;;;;5.59;84.92;101778.59;5036217;28;11547;-74
2021/12/14 10:13:04;;;;;;;;;28.75;28.50;;;;;5.73;84.22;101778.91;5061072;28;11547;-74
2021/12/14 10:15:53;;;;;;;;;33.25;33.25;;;;;5.79;83.79;101786.88;5055802;28;11621;-74
2021/12/14 10:18:56;;;;;;;;;27.75;27.50;;;;;5.55;84.22;101783.00;5041365;28;11727;-75
2021/12/14 10:21:56;;;;;;;;;21.50;20.50;;;;;5.55;83.71;101783.00;5041459;28;11598;-75
2021/12/14 10:24:28;;;;;;;;;23.50;23.50;;;;;5.71;83.75;101759.16;5055093;28;11475;-75
2021/12/14 10:27:02;;;;;;;;;19.00;17.00;;;;;5.48;83.37;101744.00;5055199;28;11570;-74
2021/12/14 10:29:49;;;;;;;;;26.75;25.25;;;;;5.71;83.54;101743.50;5039904;28;11675;-75
2021/12/14 10:32:45;;;;;;;;;19.00;19.00;;;;;5.58;82.72;101755.81;5054322;28;11527;-75
2021/12/14 10:35:50;;;;;;;;;21.75;20.75;;;;;5.95;82.21;101753.97;5054913;28;11635;-76
2021/12/14 10:39:24;;;;;;;;;20.50;20.50;;;;;6.05;81.26;101760.28;5054780;28;11516;-75
2021/12/14 10:45:03;;;;;;;;;25.50;24.00;;;;;5.80;81.59;101749.25;5055528;28;11642;-75
2021/12/14 10:48:00;;;;;;;;;23.00;17.25;;;;;5.68;81.78;101754.22;5040925;28;11574;-75
2021/12/14 10:51:01;;;;;;;;;24.50;20.00;;;;;5.88;81.89;101750.66;5054219;28;11543;-75
2021/12/14 10:54:00;;;;;;;;;24.50;22.25;;;;;7.00;92.18;101754.09;5056000;28;11533;-74
2021/12/14 10:56:47;;;;;;;;;23.50;23.25;;;;;8.19;98.39;101753.06;5061911;28;11549;-74
2021/12/14 10:59:18;;;;;;;;;24.50;24.50;;;;;9.29;100.00;101754.09;5075483;28;11655;-73
2021/12/14 11:02:14;;;;;;;;;22.00;22.00;;;;;8.20;93.08;101762.97;5071923;28;11557;-74
2021/12/14 11:04:53;;;;;;;;;35.25;32.25;;;;;8.27;91.71;101761.53;5053088;28;11496;-74
2021/12/14 11:07:51;;;;;;;;;19.75;19.75;;;;;7.83;86.05;101786.41;5054118;28;11533;-75
2021/12/14 11:10:37;;;;;;;;;22.25;22.25;;;;;7.62;85.57;101799.47;5054038;28;12248;-74
2021/12/14 11:13:43;;;;;;;;;25.75;23.25;;;;;7.39;82.98;101784.44;5060641;28;11465;-73
2021/12/14 11:18:08;;;;;;;;;23.50;23.25;;;;;7.29;81.45;101787.25;5065502;28;11571;-74
2021/12/14 11:19:46;;;;;;;;;18.00;17.75;;;;;7.11;81.14;101787.88;5054624;28;11484;-73
2021/12/14 11:22:43;;;;;;;;;21.75;19.75;;;;;7.01;80.80;101791.50;5063643;28;11644;-74
2021/12/14 11:26:04;;;;;;;;;18.25;18.25;;;;;6.42;78.68;101783.91;5049937;28;11700;-73
2021/12/14 11:29:05;;;;;;;;;25.00;25.00;;;;;6.44;79.10;101783.63;5060268;28;11508;-74
2021/12/14 11:31:55;;;;;;;;;18.00;18.00;;;;;6.46;78.18;101784.19;5071427;28;11526;-73
2021/12/14 11:34:51;;;;;;;;;56.00;45.75;;;;;6.46;78.18;101785.00;5054862;28;11524;-73
2021/12/14 11:37:47;;;;;;;;;15.00;13.00;;;;;6.17;77.53;101792.16;5065055;28;11549;-73
2021/12/14 11:40:19;;;;;;;;;23.50;21.50;;;;;6.20;77.93;101805.34;5054302;28;11525;-76
2021/12/14 11:43:15;;;;;;;;;21.25;21.25;;;;;6.34;77.56;101795.44;5067931;28;11515;-72
2021/12/14 11:46:10;;;;;;;;;16.25;16.25;;;;;6.20;78.15;101786.09;5073223;28;11594;-73
2021/12/14 11:49:06;;;;;;;;;21.50;19.75;;;;;6.31;77.45;101779.53;5073150;28;11563;-73
2021/12/14 11:51:48;;;;;;;;;25.00;22.75;;;;;6.30;77.31;101773.22;5073540;28;11568;-73
2021/12/14 11:54:47;;;;;;;;;26.25;24.25;;;;;6.29;77.17;101774.31;5059430;28;11513;-72
2021/12/14 11:57:44;;;;;;;;;19.50;19.00;;;;;6.13;77.48;101789.13;5071446;28;12263;-72
2021/12/14 12:00:20;;;;;;;;;17.00;17.00;;;;;6.12;76.96;101782.81;5042929;28;11628;-73
2021/12/14 12:02:48;;;;;;;;;8.00;5.25;;;;;5.98;77.41;101779.00;5054016;28;11553;-72
2021/12/14 12:06:07;;;;;;;;;16.50;16.50;;;;;5.84;77.18;101781.41;5052975;28;11487;-74
2021/12/14 12:09:28;;;;;;;;;15.25;14.50;;;;;6.01;76.97;101777.59;5052491;28;11610;-72
2021/12/14 12:12:02;;;;;;;;;9.00;9.00;;;;;5.79;76.77;101777.81;5065898;28;11463;-73
2021/12/14 12:15:16;;;;;;;;;15.25;14.75;;;;;5.66;77.21;101787.38;5040453;28;11497;-72
2021/12/14 12:17:51;;;;;;;;;20.50;20.25;;;;;5.83;77.05;101798.16;5061145;28;11582;-72
2021/12/14 12:20:50;;;;;;;;;20.50;19.00;;;;;5.74;77.03;101791.53;5063846;28;11559;-72
2021/12/14 12:23:21;;;;;;;;;9.25;8.75;;;;;5.72;76.56;101797.28;5059810;28;11525;-73
2021/12/14 12:26:00;;;;;;;;;18.00;18.00;;;;;5.72;76.29;101805.53;5058306;28;11474;-72
2021/12/14 12:28:36;;;;;;;;;16.75;16.75;;;;;5.81;76.00;101801.16;5044272;28;11526;-73
2021/12/14 12:31:20;;;;;;;;;32.25;27.00;;;;;6.01;75.75;101803.13;5039452;28;11517;-73
2021/12/14 12:33:54;;;;;;;;;16.00;16.00;;;;;5.76;75.12;101794.84;5049142;28;12340;-72
2021/12/14 12:36:49;;;;;;;;;19.50;17.25;;;;;5.75;75.67;101798.66;5053705;28;11614;-72
2021/12/14 12:39:50;;;;;;;;;14.75;14.75;;;;;5.59;76.22;101787.66;5052183;28;12426;-72
2021/12/14 12:42:46;;;;;;;;;15.00;15.00;;;;;5.46;76.81;101781.88;5051383;28;12274;-72
2021/12/14 12:45:53;;;;;;;;;16.25;16.25;;;;;5.15;76.90;101784.50;5033980;28;11607;-73
2021/12/14 12:48:52;;;;;;;;;14.75;14.75;;;;;5.42;76.55;101778.00;5043281;28;11532;-72
2021/12/14 12:51:39;;;;;;;;;19.00;19.00;;;;;5.31;77.11;101777.16;5052627;28;11563;-73
2021/12/14 12:54:37;;;;;;;;;19.50;19.50;;;;;5.54;76.80;101779.41;5050858;28;11559;-73
2021/12/14 12:57:42;;;;;;;;;22.00;22.00;;;;;5.64;76.90;101777.78;5051046;28;11594;-73
2021/12/14 13:00:20;;;;;;;;;16.00;15.00;;;;;5.39;78.53;101784.88;5049794;28;11496;-73
2021/12/14 13:03:21;;;;;;;;;19.75;16.00;;;;;5.49;78.66;101771.16;5051139;28;11652;-73
2021/12/14 13:06:22;;;;;;;;;23.75;21.75;;;;;5.43;79.02;101771.41;5051899;28;11524;-73
2021/12/14 13:09:18;;;;;;;;;27.25;25.50;;;;;5.14;80.50;101784.78;5038348;28;11539;-73
2021/12/14 13:11:45;;;;;;;;;22.50;22.50;;;;;5.30;80.21;101787.31;5052387;28;11478;-73
2021/12/14 13:14:35;;;;;;;;;21.00;19.75;;;;;5.14;80.66;101799.31;5018265;28;11618;-73
2021/12/14 13:17:31;;;;;;;;;26.75;25.75;;;;;5.13;80.79;101785.84;5037667;28;11506;-73
2021/12/14 13:20:16;;;;;;;;;31.75;30.75;;;;;5.39;80.10;101789.53;5049213;28;12408;-72
2021/12/14 13:22:48;;;;;;;;;30.75;29.50;;;;;5.28;80.48;101788.66;5035865;28;11515;-73
2021/12/14 13:25:35;;;;;;;;;47.25;43.00;;;;;5.41;80.11;101799.13;5052072;28;11718;-72
2021/12/14 13:28:40;;;;;;;;;27.50;27.50;;;;;5.10;81.22;101791.88;5036758;28;11600;-71
2021/12/14 13:31:08;;;;;;;;;22.50;20.50;;;;;5.28;80.66;101807.84;5067189;28;11554;-72